createdAt,value
2019-02-07T00:01:43.997Z,29.20
2019-02-07T00:04:15.494Z,27.77
2019-02-07T00:06:47.007Z,33.77
2019-02-07T00:09:18.255Z,27.17
2019-02-07T00:11:51.361Z,38.47
2019-02-07T00:14:23.988Z,29.43
2019-02-07T00:16:55.718Z,27.50
2019-02-07T00:19:26.346Z,26.67
2019-02-07T00:21:57.491Z,30.17
2019-02-07T00:24:30.522Z,28.90
2019-02-07T00:27:01.831Z,27.97
2019-02-07T00:29:33.184Z,35.80
2019-02-07T00:32:04.093Z,28.47
2019-02-07T00:34:35.228Z,35.63
2019-02-07T00:37:06.618Z,32.83
2019-02-07T00:39:37.806Z,38.90
2019-02-07T00:42:09.239Z,35.23
2019-02-07T00:44:50.234Z,35.20
2019-02-07T00:47:14.617Z,35.57
2019-02-07T00:49:46.242Z,33.97
2019-02-07T00:52:17.536Z,36.80
2019-02-07T00:54:48.774Z,37.00
2019-02-07T00:57:19.792Z,40.07
2019-02-07T00:59:51.015Z,39.10
2019-02-07T01:02:22.505Z,40.50
2019-02-07T01:04:53.618Z,38.70
2019-02-07T01:07:24.590Z,30.03
2019-02-07T01:09:56.875Z,27.03
2019-02-07T01:12:28.753Z,30.60
2019-02-07T01:15:01.996Z,46.37
2019-02-07T01:17:32.658Z,35.20
2019-02-07T01:20:04.986Z,31.17
2019-02-07T01:22:36.206Z,30.27
2019-02-07T01:25:09.461Z,27.73
2019-02-07T01:27:41.516Z,27.25
2019-02-07T01:30:14.577Z,25.87
2019-02-07T01:32:45.870Z,27.70
2019-02-07T01:35:17.275Z,33.63
2019-02-07T01:37:48.628Z,30.70
2019-02-07T01:40:23.298Z,26.50
2019-02-07T01:42:55.866Z,31.20
2019-02-07T01:45:26.631Z,24.90
2019-02-07T01:47:57.899Z,28.43
2019-02-07T01:50:29.836Z,22.40
2019-02-07T01:53:01.109Z,23.97
2019-02-07T01:55:32.352Z,24.20
2019-02-07T01:58:03.530Z,24.10
2019-02-07T02:00:34.282Z,22.73
2019-02-07T02:03:05.431Z,25.90
2019-02-07T02:05:36.833Z,24.40
2019-02-07T02:08:07.978Z,23.67
2019-02-07T02:10:39.110Z,31.03
2019-02-07T02:13:14.072Z,24.90
2019-02-07T02:15:45.286Z,29.87
2019-02-07T02:18:16.431Z,28.30
2019-02-07T02:20:47.578Z,34.97
2019-02-07T02:23:18.880Z,33.83
2019-02-07T02:25:49.862Z,34.37
2019-02-07T02:28:22.142Z,30.37
2019-02-07T02:30:54.045Z,35.87
2019-02-07T02:33:24.993Z,38.07
2019-02-07T02:35:55.945Z,36.13
2019-02-07T02:38:26.615Z,37.43
2019-02-07T02:40:57.910Z,32.50
2019-02-07T02:43:28.899Z,35.48
2019-02-07T02:46:00.064Z,43.80
2019-02-07T02:48:34.096Z,35.13
2019-02-07T02:51:05.305Z,41.70
2019-02-07T02:53:36.698Z,31.10
2019-02-07T02:56:08.227Z,36.20
2019-02-07T02:58:39.428Z,32.27
2019-02-07T03:01:29.699Z,33.10
2019-02-07T03:04:35.143Z,37.00
2019-02-07T03:07:28.300Z,31.53
2019-02-07T03:10:10.270Z,28.50
2019-02-07T03:13:03.187Z,30.20
2019-02-07T03:15:54.357Z,31.53
2019-02-07T03:18:47.436Z,35.20
2019-02-07T03:21:54.478Z,34.90
2019-02-07T03:24:56.460Z,37.40
2019-02-07T03:27:49.129Z,31.37
2019-02-07T03:30:48.772Z,37.13
2019-02-07T03:33:41.536Z,33.17
2019-02-07T03:36:41.806Z,29.37
2019-02-07T03:39:30.958Z,38.50
2019-02-07T03:42:24.045Z,30.10
2019-02-07T03:45:20.057Z,33.93
2019-02-07T03:48:08.636Z,29.73
2019-02-07T03:51:17.055Z,31.20
2019-02-07T03:54:05.532Z,32.90
2019-02-07T03:56:55.745Z,35.17
2019-02-07T03:59:44.531Z,31.00
2019-02-07T04:02:40.554Z,37.00
2019-02-07T04:05:29.462Z,32.93
2019-02-07T04:08:18.172Z,31.57
2019-02-07T04:11:11.554Z,38.53
2019-02-07T04:14:07.502Z,34.90
2019-02-07T04:16:56.631Z,34.53
2019-02-07T04:19:47.621Z,28.60
2019-02-07T04:22:43.780Z,32.20
2019-02-07T04:25:42.663Z,34.10
2019-02-07T04:28:31.638Z,36.57
2019-02-07T04:31:24.111Z,31.30
2019-02-07T04:34:12.921Z,33.13
2019-02-07T04:37:08.845Z,32.03
2019-02-07T04:40:04.762Z,31.50
2019-02-07T04:42:57.831Z,32.20
2019-02-07T04:45:53.455Z,35.03
2019-02-07T04:48:50.186Z,29.93
2019-02-07T04:51:33.103Z,33.10
2019-02-07T04:54:23.571Z,36.57
2019-02-07T04:57:30.695Z,34.37
2019-02-07T05:00:20.586Z,37.63
2019-02-07T05:03:13.540Z,32.37
2019-02-07T05:06:08.612Z,35.70
2019-02-07T05:09:13.869Z,35.73
2019-02-07T05:12:08.552Z,29.07
2019-02-07T05:15:07.776Z,33.93
2019-02-07T05:18:06.629Z,30.17
2019-02-07T05:20:49.088Z,28.40
2019-02-07T05:23:42.611Z,29.80
2019-02-07T05:26:35.330Z,27.07
2019-02-07T05:29:21.803Z,30.50
2019-02-07T05:32:11.720Z,27.40
2019-02-07T05:34:54.055Z,31.50
2019-02-07T05:37:55.944Z,33.20
2019-02-07T05:40:49.520Z,30.90
2019-02-07T05:43:51.891Z,31.70
2019-02-07T05:46:51.144Z,30.97
2019-02-07T05:49:35.319Z,41.40
2019-02-07T05:52:37.960Z,34.03
2019-02-07T05:55:37.951Z,30.10
2019-02-07T05:58:26.458Z,24.90
2019-02-07T06:01:10.979Z,30.27
2019-02-07T06:03:57.138Z,27.37
2019-02-07T06:06:50.120Z,25.50
2019-02-07T06:09:43.821Z,28.70
2019-02-07T06:12:36.700Z,29.53
2019-02-07T06:15:23.671Z,27.77
2019-02-07T06:18:15.472Z,27.23
2019-02-07T06:21:02.044Z,32.90
2019-02-07T06:23:54.708Z,28.80
2019-02-07T06:26:53.625Z,32.60
2019-02-07T06:29:42.359Z,28.43
2019-02-07T06:32:41.435Z,27.67
2019-02-07T06:35:26.111Z,36.70
2019-02-07T06:38:03.258Z,33.73
2019-02-07T06:41:05.404Z,30.40
2019-02-07T06:43:55.638Z,33.73
2019-02-07T06:46:45.214Z,35.73
2019-02-07T06:49:24.522Z,34.50
2019-02-07T06:52:11.390Z,42.83
2019-02-07T06:55:00.361Z,28.40
2019-02-07T06:57:49.093Z,32.87
2019-02-07T07:00:51.379Z,34.70
2019-02-07T07:03:53.747Z,30.27
2019-02-07T07:06:44.757Z,32.43
2019-02-07T07:09:35.169Z,26.35
2019-02-07T07:12:44.786Z,36.60
2019-02-07T07:15:40.239Z,23.30
2019-02-07T07:18:27.984Z,22.57
2019-02-07T07:21:20.709Z,21.00
2019-02-07T07:24:10.085Z,25.47
2019-02-07T07:26:53.797Z,21.23
2019-02-07T07:29:38.533Z,22.23
2019-02-07T07:32:43.903Z,29.67
2019-02-07T07:35:44.198Z,18.67
2019-02-07T07:38:27.443Z,22.60
2019-02-07T07:41:19.132Z,23.27
2019-02-07T07:44:07.097Z,16.60
2019-02-07T07:47:14.458Z,17.57
2019-02-07T07:50:06.765Z,15.70
2019-02-07T07:52:55.730Z,20.13
2019-02-07T07:55:38.936Z,26.20
2019-02-07T07:58:44.392Z,19.07
2019-02-07T08:01:32.917Z,24.57
2019-02-07T08:04:13.421Z,24.47
2019-02-07T08:06:58.233Z,23.60
2019-02-07T08:09:54.099Z,22.33
2019-02-07T08:12:47.504Z,25.90
2019-02-07T08:15:40.808Z,37.77
2019-02-07T08:18:46.119Z,24.57
2019-02-07T08:21:38.990Z,26.00
2019-02-07T08:24:28.828Z,28.33
2019-02-07T08:27:17.262Z,35.43
2019-02-07T08:30:06.010Z,35.77
2019-02-07T08:32:55.060Z,27.97
2019-02-07T08:35:45.114Z,29.50
2019-02-07T08:38:37.673Z,28.17
2019-02-07T08:41:27.185Z,35.00
2019-02-07T08:44:20.283Z,31.13
2019-02-07T08:47:07.678Z,30.57
2019-02-07T08:50:07.027Z,29.63
2019-02-07T08:52:57.794Z,31.13
2019-02-07T08:56:01.471Z,40.37
2019-02-07T08:58:51.643Z,31.52
2019-02-07T09:01:53.924Z,46.93
2019-02-07T09:04:43.636Z,36.63
2019-02-07T09:07:32.460Z,34.27
2019-02-07T09:10:18.992Z,32.63
2019-02-07T09:13:15.041Z,30.43
2019-02-07T09:16:04.461Z,39.03
2019-02-07T09:19:00.961Z,34.40
2019-02-07T09:21:50.511Z,36.20
2019-02-07T09:24:39.022Z,29.93
2019-02-07T09:27:23.695Z,40.77
2019-02-07T09:30:19.646Z,33.40
2019-02-07T09:37:03.058Z,40.30
2019-02-07T09:39:53.151Z,36.33
2019-02-07T09:42:41.584Z,33.90
2019-02-07T09:45:25.244Z,32.43
2019-02-07T09:48:21.421Z,27.57
2019-02-07T09:51:05.813Z,25.50
2019-02-07T09:53:57.731Z,23.93
2019-02-07T09:56:35.427Z,26.83
2019-02-07T09:59:24.227Z,24.10
2019-02-07T10:02:14.201Z,23.97
2019-02-07T10:05:03.399Z,20.03
2019-02-07T10:08:00.937Z,24.10
2019-02-07T10:11:06.532Z,25.80
2019-02-07T10:13:56.600Z,27.07
2019-02-07T10:16:46.509Z,24.43
2019-02-07T10:19:31.026Z,23.03
2019-02-07T10:22:17.717Z,29.23
2019-02-07T10:25:12.910Z,38.63
2019-02-07T10:27:50.780Z,49.43
2019-02-07T10:30:41.227Z,45.30
2019-02-07T10:33:26.586Z,44.63
2019-02-07T10:36:20.342Z,44.50
2019-02-07T10:39:13.754Z,47.20
2019-02-07T10:42:07.345Z,40.53
2019-02-07T10:45:00.220Z,41.83
2019-02-07T10:47:55.401Z,39.23
2019-02-07T10:50:43.997Z,45.67
2019-02-07T10:53:42.980Z,44.47
2019-02-07T10:56:52.357Z,51.50
2019-02-07T10:59:39.464Z,53.80
2019-02-07T11:02:38.763Z,62.97
2019-02-07T11:05:32.138Z,57.83
2019-02-07T11:08:23.207Z,62.00
2019-02-07T11:11:19.370Z,56.53
2019-02-07T11:14:18.849Z,52.17
2019-02-07T11:17:21.306Z,52.23
2019-02-07T11:20:12.015Z,53.10
2019-02-07T11:23:01.682Z,59.43
2019-02-07T11:25:58.474Z,60.20
2019-02-07T11:28:57.660Z,67.10
2019-02-07T11:31:47.923Z,58.50
2019-02-07T11:34:41.336Z,62.13
2019-02-07T11:37:31.653Z,64.90
2019-02-07T11:40:24.814Z,59.00
2019-02-07T11:43:14.925Z,65.00
2019-02-07T11:46:02.290Z,57.70
2019-02-07T11:49:06.908Z,66.13
2019-02-07T11:51:52.084Z,63.20
2019-02-07T11:54:39.730Z,57.87
2019-02-07T11:57:29.975Z,73.57
2019-02-07T12:00:35.358Z,68.93
2019-02-07T12:03:31.336Z,68.17
2019-02-07T12:06:21.342Z,69.40
2019-02-07T12:09:37.090Z,69.93
2019-02-07T12:12:36.425Z,68.77
2019-02-07T12:15:19.169Z,61.83
2019-02-07T12:18:00.797Z,66.83
2019-02-07T12:20:59.432Z,69.17
2019-02-07T12:23:46.379Z,66.60
2019-02-07T12:26:35.725Z,70.90
2019-02-07T12:29:25.649Z,70.73
2019-02-07T12:32:15.682Z,70.77
2019-02-07T12:35:04.037Z,73.97
2019-02-07T12:37:52.768Z,71.07
2019-02-07T12:40:37.840Z,81.13
2019-02-07T12:43:37.581Z,78.70
2019-02-07T12:46:36.673Z,69.23
2019-02-07T12:49:35.640Z,70.80
2019-02-07T12:52:23.995Z,73.60
2019-02-07T12:55:18.824Z,71.47
2019-02-07T12:58:07.982Z,76.13
2019-02-07T13:01:07.805Z,81.57
2019-02-07T13:04:04.654Z,74.32
2019-02-07T13:06:56.655Z,75.07
2019-02-07T13:09:49.616Z,69.93
2019-02-07T13:12:36.464Z,76.30
2019-02-07T13:15:28.308Z,79.63
2019-02-07T13:18:09.888Z,78.10
2019-02-07T13:20:51.737Z,78.33
2019-02-07T13:23:40.198Z,68.50
2019-02-07T13:26:30.482Z,81.27
2019-02-07T13:29:25.984Z,69.80
2019-02-07T13:32:15.029Z,77.43
2019-02-07T13:35:02.771Z,75.43
2019-02-07T13:37:49.143Z,67.93
2019-02-07T13:40:45.647Z,72.07
2019-02-07T13:43:38.424Z,68.83
2019-02-07T13:46:41.006Z,78.37
2019-02-07T13:49:51.627Z,65.67
2019-02-07T13:52:40.470Z,75.23
2019-02-07T13:55:26.610Z,69.10
2019-02-07T13:58:25.502Z,64.60
2019-02-07T14:01:14.720Z,70.93
2019-02-07T14:04:02.916Z,73.17
2019-02-07T14:06:51.749Z,68.13
2019-02-07T14:09:38.071Z,66.43
2019-02-07T14:12:27.635Z,78.37
2019-02-07T14:15:17.628Z,75.50
2019-02-07T14:18:07.504Z,72.97
2019-02-07T14:21:09.979Z,76.60
2019-02-07T14:23:59.234Z,73.53
2019-02-07T14:26:51.516Z,66.53
2019-02-07T14:29:37.417Z,74.23
2019-02-07T14:32:30.462Z,72.50
2019-02-07T14:35:21.260Z,76.87
2019-02-07T14:38:13.226Z,71.27
2019-02-07T14:41:02.286Z,77.93
2019-02-07T14:43:56.046Z,69.73
2019-02-07T14:46:45.093Z,70.37
2019-02-07T14:49:16.732Z,73.17
2019-02-07T14:51:47.933Z,67.90
2019-02-07T14:54:19.419Z,74.27
2019-02-07T14:56:54.855Z,70.90
2019-02-07T14:59:26.460Z,69.27
2019-02-07T15:01:58.192Z,77.30
2019-02-07T15:04:29.018Z,67.20
2019-02-07T15:07:00.554Z,75.87
2019-02-07T15:09:35.099Z,77.10
2019-02-07T15:12:06.637Z,75.70
2019-02-07T15:14:39.131Z,74.37
2019-02-07T15:17:12.646Z,76.73
2019-02-07T15:19:44.119Z,64.77
2019-02-07T15:22:17.089Z,68.13
2019-02-07T15:24:48.520Z,71.53
2019-02-07T15:27:19.618Z,76.87
2019-02-07T15:29:50.899Z,65.37
2019-02-07T15:32:22.164Z,71.50
2019-02-07T15:34:53.910Z,72.20
2019-02-07T15:37:25.174Z,73.07
2019-02-07T15:39:56.299Z,71.87
2019-02-07T15:42:27.734Z,73.73
2019-02-07T15:44:59.383Z,74.87
2019-02-07T15:47:30.071Z,73.27
2019-02-07T15:50:06.423Z,78.67
2019-02-07T15:52:38.029Z,71.17
2019-02-07T15:55:09.707Z,73.23
2019-02-07T15:57:40.757Z,59.83
2019-02-07T16:00:28.482Z,77.97
2019-02-07T16:03:12.187Z,69.37
2019-02-07T16:05:56.555Z,75.83
2019-02-07T16:08:27.457Z,64.57
2019-02-07T16:10:58.692Z,71.73
2019-02-07T16:13:29.944Z,73.63
2019-02-07T16:16:01.159Z,71.13
2019-02-07T16:18:32.065Z,74.20
2019-02-07T16:21:03.454Z,75.00
2019-02-07T16:23:34.209Z,72.63
2019-02-07T16:26:05.414Z,76.67
2019-02-07T16:28:36.435Z,73.80
2019-02-07T16:31:07.952Z,74.47
2019-02-07T16:33:39.353Z,72.37
2019-02-07T16:36:11.828Z,74.00
2019-02-07T16:38:47.013Z,74.00
2019-02-07T16:41:18.539Z,77.73
2019-02-07T16:43:49.992Z,67.97
2019-02-07T16:46:21.338Z,69.13
2019-02-07T16:48:53.163Z,77.27
2019-02-07T16:51:27.832Z,74.40
2019-02-07T16:54:25.772Z,73.70
2019-02-07T16:57:02.184Z,73.77
2019-02-07T16:59:33.628Z,75.17
2019-02-07T17:02:05.187Z,79.93
2019-02-07T17:04:36.565Z,76.50
2019-02-07T17:07:08.163Z,74.43
2019-02-07T17:09:44.368Z,73.13
2019-02-07T17:12:15.895Z,67.13
2019-02-07T17:14:47.218Z,72.57
2019-02-07T17:17:18.502Z,75.97
2019-02-07T17:19:49.764Z,74.07
2019-02-07T17:22:20.947Z,73.03
2019-02-07T17:24:52.639Z,72.67
2019-02-07T17:27:24.096Z,71.70
2019-02-07T17:29:55.336Z,74.03
2019-02-07T17:32:26.870Z,74.33
2019-02-07T17:34:57.964Z,80.50
2019-02-07T17:37:30.678Z,75.17
2019-02-07T17:40:01.998Z,71.90
2019-02-07T17:42:33.910Z,78.45
2019-02-07T17:45:07.072Z,77.83
2019-02-07T17:47:38.049Z,71.03
2019-02-07T17:50:13.152Z,76.07
2019-02-07T17:52:44.621Z,74.57
2019-02-07T17:55:17.155Z,71.63
2019-02-07T17:57:48.418Z,76.40
2019-02-07T18:00:35.203Z,78.40
2019-02-07T18:03:06.504Z,71.03
2019-02-07T18:05:37.494Z,75.67
2019-02-07T18:08:09.105Z,73.10
2019-02-07T18:10:40.639Z,75.43
2019-02-07T18:13:12.448Z,79.40
2019-02-07T18:15:43.684Z,75.17
2019-02-07T18:18:15.089Z,70.60
2019-02-07T18:20:46.803Z,74.87
2019-02-07T18:23:28.649Z,75.50
2019-02-07T18:26:00.050Z,80.90
2019-02-07T18:28:31.495Z,68.03
2019-02-07T18:31:02.672Z,74.70
2019-02-07T18:33:33.551Z,78.00
2019-02-07T18:36:05.094Z,73.07
2019-02-07T18:38:36.421Z,71.93
2019-02-07T18:41:11.294Z,77.97
2019-02-07T18:43:43.212Z,70.22
2019-02-07T18:46:14.424Z,74.93
2019-02-07T18:48:47.720Z,76.90
2019-02-07T18:51:18.943Z,73.67
2019-02-07T18:57:16.369Z,74.33
2019-02-07T18:59:47.911Z,84.23
2019-02-07T19:02:19.187Z,73.63
2019-02-07T19:04:52.072Z,68.00
2019-02-07T19:07:23.282Z,74.03
2019-02-07T19:10:03.087Z,59.97
2019-02-07T19:12:34.430Z,73.13
2019-02-07T19:15:08.255Z,64.10
2019-02-07T19:17:40.113Z,71.20
2019-02-07T19:20:14.152Z,69.97
2019-02-07T19:22:45.459Z,75.07
2019-02-07T19:25:17.939Z,69.60
2019-02-07T19:27:49.079Z,68.80
2019-02-07T19:30:23.212Z,73.23
2019-02-07T19:32:54.309Z,75.00
2019-02-07T19:35:25.592Z,76.20
2019-02-07T19:37:56.708Z,79.13
2019-02-07T19:40:28.732Z,70.83
2019-02-07T19:43:00.451Z,71.70
2019-02-07T19:45:31.625Z,73.40
2019-02-07T19:48:02.904Z,77.40
2019-02-07T19:50:33.745Z,69.62
2019-02-07T19:53:04.910Z,75.87
2019-02-07T19:55:36.075Z,76.67
2019-02-07T19:58:07.643Z,74.97
2019-02-07T20:00:40.527Z,73.97
2019-02-07T20:03:11.987Z,79.43
2019-02-07T20:05:43.225Z,93.60
2019-02-07T20:08:14.391Z,79.37
2019-02-07T20:10:45.823Z,80.17
2019-02-07T20:13:22.401Z,82.33
2019-02-07T20:15:54.043Z,75.10
2019-02-07T20:18:24.951Z,71.60
2019-02-07T20:20:56.248Z,75.50
2019-02-07T20:23:28.166Z,78.70
2019-02-07T20:25:59.512Z,74.27
2019-02-07T20:28:30.197Z,79.80
2019-02-07T20:31:01.439Z,73.93
2019-02-07T20:33:32.354Z,76.00
2019-02-07T20:36:03.450Z,73.43
2019-02-07T20:38:34.583Z,74.10
2019-02-07T20:41:06.306Z,71.50
2019-02-07T20:43:37.412Z,72.70
2019-02-07T20:46:08.720Z,79.43
2019-02-07T20:48:39.889Z,73.47
2019-02-07T20:51:11.599Z,69.97
2019-02-07T20:53:42.782Z,74.40
2019-02-07T20:56:13.974Z,82.77
2019-02-07T20:58:45.280Z,73.63
2019-02-07T21:01:16.638Z,68.70
2019-02-07T21:03:47.664Z,73.47
2019-02-07T21:06:18.910Z,75.93
2019-02-07T21:08:50.192Z,78.47
2019-02-07T21:11:21.530Z,77.43
2019-02-07T21:13:52.672Z,76.05
2019-02-07T21:16:23.799Z,82.53
2019-02-07T21:19:00.511Z,84.40
2019-02-07T21:21:32.544Z,77.83
2019-02-07T21:24:03.979Z,85.53
2019-02-07T21:26:34.950Z,76.00
2019-02-07T21:29:06.217Z,83.77
2019-02-07T21:31:37.361Z,94.07
2019-02-07T21:34:08.219Z,88.70
2019-02-07T21:36:39.415Z,88.35
2019-02-07T21:39:12.578Z,89.67
2019-02-07T21:41:43.797Z,80.17
2019-02-07T21:44:15.009Z,87.30
2019-02-07T21:46:46.424Z,95.77
2019-02-07T21:49:17.606Z,84.23
2019-02-07T21:51:49.314Z,84.67
2019-02-07T21:54:20.594Z,80.87
2019-02-07T21:56:52.055Z,88.83
2019-02-07T21:59:23.579Z,90.10
2019-02-07T22:01:55.063Z,84.00
2019-02-07T22:04:26.272Z,97.73
2019-02-07T22:06:58.144Z,102.10
2019-02-07T22:09:29.213Z,86.87
2019-02-07T22:12:00.185Z,92.23
2019-02-07T22:14:31.044Z,93.17
2019-02-07T22:17:02.492Z,89.00
2019-02-07T22:19:34.664Z,93.50
2019-02-07T22:22:14.169Z,85.70
2019-02-07T22:24:45.955Z,84.60
2019-02-07T22:27:16.879Z,87.50
2019-02-07T22:29:48.059Z,87.63
2019-02-07T22:32:19.221Z,91.77
2019-02-07T22:34:50.351Z,90.40
2019-02-07T22:37:21.974Z,94.30
2019-02-07T22:39:54.033Z,84.30
2019-02-07T22:42:25.321Z,91.57
2019-02-07T22:44:56.017Z,89.17
2019-02-07T22:47:26.779Z,88.03
2019-02-07T22:49:57.668Z,79.60
2019-02-07T22:52:29.004Z,85.62
2019-02-07T22:55:00.750Z,91.40
2019-02-07T22:57:31.574Z,89.70
2019-02-07T23:00:02.789Z,86.90
2019-02-07T23:02:33.765Z,83.78
2019-02-07T23:05:05.516Z,84.10
2019-02-07T23:07:36.429Z,75.80
2019-02-07T23:10:07.940Z,93.53
2019-02-07T23:12:39.256Z,79.30
2019-02-07T23:15:10.641Z,86.27
2019-02-07T23:17:42.659Z,85.10
2019-02-07T23:20:14.359Z,87.07
2019-02-07T23:22:45.892Z,71.27
2019-02-07T23:25:17.209Z,85.17
2019-02-07T23:27:48.275Z,68.70
2019-02-07T23:30:19.949Z,76.30
2019-02-07T23:32:51.017Z,81.27
2019-02-07T23:35:22.220Z,88.83
2019-02-07T23:37:53.048Z,85.07
2019-02-07T23:40:24.235Z,77.97
2019-02-07T23:42:55.319Z,88.27
2019-02-07T23:45:26.757Z,91.70
2019-02-07T23:47:57.903Z,89.53
2019-02-07T23:50:29.330Z,88.47
2019-02-07T23:53:00.419Z,88.17
2019-02-07T23:55:31.491Z,90.57
2019-02-07T23:58:02.776Z,87.50
